Northern Expedition — CFN5364 — position and weather

sailwx.info

Track history (hours):
 
Tides and Currents Weather Stations Pressure Air Temp Water Temp Dewpoint Dewpoint Depression Visibility Wind Speed Wind Dir Waves Ship Positions

Northern Expedition

Last reported at 2014-Oct-20 05:33 UTC. Time now 2014-Oct-21 18:25 UTC.
Position N 54°16' W 130°21'.

Length 151 m; draft 5 m.

Type: Ship. MMSI: 316014054.

Date/timePositionNaut miles runAvg speedWind from/ knotsBaromVisibWave heightAir tempDewpointWater temp
2014-Oct-20 05:33N 54°16' W 130°21'2 2.2
2014-Oct-20 04:33N 54°18' W 130°21'  
2014-Oct-13 06:22N 54°07' W 130°27'9 7.9
2014-Oct-13 05:10N 54°16' W 130°22'2 3.2
2014-Oct-13 04:34N 54°18' W 130°21'0 0.0
2014-Oct-13 03:34N 54°18' W 130°21'0 0.0
2014-Oct-13 02:33N 54°18' W 130°21'0 0.0
2014-Oct-13 01:34N 54°18' W 130°21'0 0.0
2014-Oct-13 00:33N 54°18' W 130°21'0 0.0
2014-Oct-12 23:33N 54°18' W 130°21'0 0.1
2014-Oct-12 22:33N 54°18' W 130°21'18910.5
2014-Oct-12 04:28N 51°31' W 127°51'1615.5
2014-Oct-12 03:28N 51°16' W 127°53'1415.7
2014-Oct-12 02:33N 51°02' W 127°47'1515.0
2014-Oct-12 01:33N 50°51' W 127°31'8 7.8
2014-Oct-12 00:33N 50°44' W 127°27'0 0.0
2014-Oct-11 23:33N 50°44' W 127°27'0 0.0
2014-Oct-11 22:33N 50°44' W 127°27'0 0.0
2014-Oct-11 21:33N 50°44' W 127°27'0 0.0
2014-Oct-11 20:33N 50°44' W 127°27'0 0.0
2014-Oct-11 19:33N 50°44' W 127°27'0 0.0
2014-Oct-11 18:22N 50°44' W 127°27'2 0.6
2014-Oct-11 15:29N 50°45' W 127°28'1212.4
2014-Oct-11 14:33N 50°54' W 127°39'1515.0
2014-Oct-11 13:33N 51°08' W 127°50'2215.4
2014-Oct-11 12:09N 51°29' W 127°51'18910.7
2014-Oct-10 18:29N 54°15' W 130°21'2 2.6
2014-Oct-10 17:33N 54°18' W 130°21'0 0.0
2014-Oct-10 16:33N 54°18' W 130°21'0 0.0
2014-Oct-10 15:33N 54°18' W 130°21'0 0.0
2014-Oct-10 14:33N 54°18' W 130°21'1 0.6
2014-Oct-10 13:33N 54°17' W 130°22'1010.2
2014-Oct-10 12:33N 54°07' W 130°27'7 6.7
2014-Oct-10 11:30N 54°11' W 130°37'1 1.1
2014-Oct-10 10:32N 54°12' W 130°38'  
Track history (hours):
 
Tides and Currents Weather Stations Pressure Air Temp Water Temp Dewpoint Dewpoint Depression Visibility Wind Speed Wind Dir Waves Ship Positions

Northern Expedition

Last reported at 2014-Oct-20 05:33 UTC. Time now 2014-Oct-21 18:25 UTC.
Position N 54°16' W 130°21'.

Length 151 m; draft 5 m.

Type: Ship. MMSI: 316014054.

Date/timePositionNaut miles runAvg speedWind from/ knotsBaromVisibWave heightAir tempDewpointWater temp
2014-Oct-20 05:33N 54°16' W 130°21'2 2.2
2014-Oct-20 04:33N 54°18' W 130°21'  
2014-Oct-13 06:22N 54°07' W 130°27'9 7.9
2014-Oct-13 05:10N 54°16' W 130°22'2 3.2
2014-Oct-13 04:34N 54°18' W 130°21'0 0.0
2014-Oct-13 03:34N 54°18' W 130°21'0 0.0
2014-Oct-13 02:33N 54°18' W 130°21'0 0.0
2014-Oct-13 01:34N 54°18' W 130°21'0 0.0
2014-Oct-13 00:33N 54°18' W 130°21'0 0.0
2014-Oct-12 23:33N 54°18' W 130°21'0 0.1
2014-Oct-12 22:33N 54°18' W 130°21'18910.5
2014-Oct-12 04:28N 51°31' W 127°51'1615.5
2014-Oct-12 03:28N 51°16' W 127°53'1415.7
2014-Oct-12 02:33N 51°02' W 127°47'1515.0
2014-Oct-12 01:33N 50°51' W 127°31'8 7.8
2014-Oct-12 00:33N 50°44' W 127°27'0 0.0
2014-Oct-11 23:33N 50°44' W 127°27'0 0.0
2014-Oct-11 22:33N 50°44' W 127°27'0 0.0
2014-Oct-11 21:33N 50°44' W 127°27'0 0.0
2014-Oct-11 20:33N 50°44' W 127°27'0 0.0
2014-Oct-11 19:33N 50°44' W 127°27'0 0.0
2014-Oct-11 18:22N 50°44' W 127°27'2 0.6
2014-Oct-11 15:29N 50°45' W 127°28'1212.4
2014-Oct-11 14:33N 50°54' W 127°39'1515.0
2014-Oct-11 13:33N 51°08' W 127°50'2215.4
2014-Oct-11 12:09N 51°29' W 127°51'18910.7
2014-Oct-10 18:29N 54°15' W 130°21'2 2.6
2014-Oct-10 17:33N 54°18' W 130°21'0 0.0
2014-Oct-10 16:33N 54°18' W 130°21'0 0.0
2014-Oct-10 15:33N 54°18' W 130°21'0 0.0
2014-Oct-10 14:33N 54°18' W 130°21'1 0.6
2014-Oct-10 13:33N 54°17' W 130°22'1010.2
2014-Oct-10 12:33N 54°07' W 130°27'7 6.7
2014-Oct-10 11:30N 54°11' W 130°37'1 1.1
2014-Oct-10 10:32N 54°12' W 130°38'  

Dump ship's entire track history